»·PEaware :: DAL199 KSLC-KSEA

DAL199 :: KSLC-KSEA

FLIGHT INFORMATION

Flight Status: Arrived
Operator:
Delta Air Lines
More flights by this operator :: More flights under this callsign
Pilot: Joe P. (13940)
Aircraft: BOEING 737-700
(B737)
More flights by this aircraft type
Origin: KSLC Salt Lake City Intl
United States
Destination: KSEA Seattle-Tacoma Intl
United States
More flights between these airports :: More routes between these airports
Route: CGULL1 TWF BOI J163 BKE PDT CHINS3
File this flight plan on PilotEdge
Remarks: KPDX -PBN / A1B1C1D1L1O1S1 NAV / RNVD1E2A1 DOF / 180818 REG / N389DA EET / KZSE0057 RVR / 200 PER / C
Altitude:
(Current/Filed)
360ft
Speed:
(Current/Filed)
454kts
Departed: 18-Aug-18 08:14 AM
Arrived: 18-Aug-18 09:58 AM
Distance/Time
Traveled:
597nm/1:44
Distance/Time
To Go:
Arrived

Flight Plot

Page will automatically refresh every two minutes.

Flight plan parsing failed; only flown route is shown


Map Options




Map Legend


Flown Route
Filed Route
Departure Airport
Arrival Airport
Navaid (VOR, NDB)
Fix

Horizontal Profiles

Position Reports

Time Latitude Longitude Heading Altitude Ground
Speed
18-Aug-18 07:02 40.788528 -111.980747 282 4235ft 0kts
18-Aug-18 07:03 40.788528 -111.980747 282 4235ft 0kts
18-Aug-18 07:04 40.788528 -111.980747 282 4235ft 0kts
18-Aug-18 07:05 40.788528 -111.980747 282 4235ft 0kts
18-Aug-18 07:06 40.788528 -111.980747 282 4235ft 0kts
18-Aug-18 07:07 40.788528 -111.980747 282 4235ft 0kts
18-Aug-18 07:08 40.788528 -111.980747 282 4235ft 0kts
18-Aug-18 07:09 40.788528 -111.980747 282 4235ft 0kts
18-Aug-18 07:10 40.788528 -111.980747 282 4235ft 0kts
18-Aug-18 07:11 40.788528 -111.980747 282 4235ft 0kts
18-Aug-18 07:12 40.788528 -111.980747 282 4235ft 0kts
18-Aug-18 07:13 40.788528 -111.980747 282 4235ft 0kts
18-Aug-18 07:14 40.788528 -111.980747 282 4235ft 0kts
18-Aug-18 07:15 40.788528 -111.980747 282 4235ft 0kts
18-Aug-18 07:16 40.788528 -111.980747 282 4235ft 0kts
18-Aug-18 07:17 40.788528 -111.980747 282 4235ft 0kts
18-Aug-18 07:18 40.788528 -111.980747 282 4235ft 0kts
18-Aug-18 07:19 40.788528 -111.980747 282 4235ft 0kts
18-Aug-18 07:20 40.788528 -111.980747 282 4235ft 0kts
18-Aug-18 07:21 40.788528 -111.980747 282 4235ft 0kts
18-Aug-18 07:22 40.788528 -111.980747 282 4235ft 0kts
18-Aug-18 07:23 40.788528 -111.980747 282 4235ft 0kts
18-Aug-18 07:24 40.788528 -111.980747 282 4235ft 0kts
18-Aug-18 07:25 40.788528 -111.980747 282 4235ft 0kts
18-Aug-18 07:26 40.788528 -111.980747 282 4235ft 0kts
18-Aug-18 07:27 40.788528 -111.980747 282 4235ft 0kts
18-Aug-18 07:28 40.788528 -111.980747 282 4235ft 0kts
18-Aug-18 07:29 40.788528 -111.980747 282 4235ft 0kts
18-Aug-18 07:30 40.788528 -111.980747 282 4235ft 0kts
18-Aug-18 07:31 40.788528 -111.980747 282 4235ft 0kts
18-Aug-18 07:32 40.788528 -111.980747 282 4235ft 0kts
18-Aug-18 07:33 40.788528 -111.980747 282 4235ft 0kts
18-Aug-18 07:34 40.788528 -111.980747 282 4235ft 0kts
18-Aug-18 07:35 40.788528 -111.980747 282 4235ft 0kts
18-Aug-18 07:36 40.788528 -111.980747 282 4235ft 0kts
18-Aug-18 07:37 40.788528 -111.980747 282 4235ft 0kts
18-Aug-18 07:38 40.788528 -111.980747 282 4235ft 0kts
18-Aug-18 07:39 40.788528 -111.980747 282 4235ft 0kts
18-Aug-18 07:40 40.788528 -111.980747 282 4235ft 0kts
18-Aug-18 07:41 40.788528 -111.980747 282 4235ft 0kts
18-Aug-18 07:42 40.788528 -111.980747 282 4235ft 0kts
18-Aug-18 07:43 40.788528 -111.980747 282 4235ft 0kts
18-Aug-18 07:44 40.788528 -111.980747 282 4235ft 0kts
18-Aug-18 07:45 40.788528 -111.980747 282 4235ft 0kts
18-Aug-18 07:46 40.788528 -111.980747 282 4235ft 0kts
18-Aug-18 07:47 40.788528 -111.980747 282 4235ft 0kts
18-Aug-18 07:48 40.788528 -111.980747 282 4235ft 0kts
18-Aug-18 07:49 40.788528 -111.980747 282 4235ft 0kts
18-Aug-18 07:50 40.788528 -111.980747 282 4235ft 0kts
18-Aug-18 07:51 40.788528 -111.980747 282 4235ft 0kts
18-Aug-18 07:52 40.788528 -111.980747 282 4235ft 0kts
18-Aug-18 07:53 40.788528 -111.980747 282 4235ft 0kts
18-Aug-18 07:54 40.788528 -111.980747 282 4235ft 0kts
18-Aug-18 07:55 40.788528 -111.980747 282 4235ft 0kts
18-Aug-18 07:56 40.788528 -111.980747 282 4235ft 0kts
18-Aug-18 07:57 40.788405 -111.980018 282 4235ft 2kts
18-Aug-18 07:58 40.788333 -111.979591 282 4235ft 0kts
18-Aug-18 07:59 40.788333 -111.979591 282 4235ft 0kts
18-Aug-18 08:00 40.788333 -111.979591 282 4235ft 0kts
18-Aug-18 08:01 40.788333 -111.979591 282 4235ft 0kts
18-Aug-18 08:02 40.788333 -111.979591 282 4235ft 0kts
18-Aug-18 08:03 40.788333 -111.979591 282 4235ft 0kts
18-Aug-18 08:04 40.788333 -111.979591 282 4235ft 0kts
18-Aug-18 08:05 40.789696 -111.978632 85 4235ft 15kts
18-Aug-18 08:06 40.792837 -111.977472 355 4235ft 20kts
18-Aug-18 08:07 40.799017 -111.978209 355 4235ft 22kts
18-Aug-18 08:08 40.804787 -111.978860 1 4235ft 20kts
18-Aug-18 08:09 40.807524 -111.978548 81 4235ft 0kts
18-Aug-18 08:10 40.807524 -111.978546 81 4235ft 0kts
18-Aug-18 08:11 40.807524 -111.978544 81 4235ft 0kts
18-Aug-18 08:12 40.806990 -111.976729 175 4235ft 0kts
18-Aug-18 08:13 40.806988 -111.976729 175 4235ft 0kts
18-Aug-18 08:14 40.806986 -111.976729 175 4235ft 0kts
18-Aug-18 08:15 40.781092 -111.973914 174 4769ft 175kts
18-Aug-18 08:16 40.724843 -111.965255 178 7147ft 235kts
18-Aug-18 08:17 40.704402 -112.036443 299 9741ft 267kts
18-Aug-18 08:18 40.751818 -112.111517 322 13000ft 284kts
18-Aug-18 08:19 40.824536 -112.180386 322 14401ft 356kts
18-Aug-18 08:20 40.906638 -112.258461 322 17123ft 369kts
18-Aug-18 08:21 40.991316 -112.338718 321 19661ft 380kts
18-Aug-18 08:22 41.078181 -112.421911 321 21912ft 390kts
18-Aug-18 08:23 41.166798 -112.507072 321 23901ft 399kts
18-Aug-18 08:24 41.256103 -112.597564 319 25689ft 406kts
18-Aug-18 08:25 41.336096 -112.704245 310 27314ft 410kts
18-Aug-18 08:26 41.413030 -112.817750 309 28776ft 416kts
18-Aug-18 08:27 41.489484 -112.935015 309 30243ft 418kts
18-Aug-18 08:28 41.565143 -113.051570 309 31964ft 412kts
18-Aug-18 08:29 41.639804 -113.166790 309 33489ft 408kts
18-Aug-18 08:30 41.713953 -113.280906 309 34886ft 405kts
18-Aug-18 08:31 41.787600 -113.395131 309 36118ft 404kts
18-Aug-18 08:32 41.861431 -113.510184 309 36311ft 406kts
18-Aug-18 08:33 41.934692 -113.624814 309 36313ft 404kts
18-Aug-18 08:34 42.007728 -113.739074 309 36312ft 403kts
18-Aug-18 08:35 42.080501 -113.854002 309 36312ft 402kts
18-Aug-18 08:36 42.152757 -113.968653 309 36313ft 402kts
18-Aug-18 08:37 42.225464 -114.083852 309 36316ft 402kts
18-Aug-18 08:38 42.298321 -114.199115 309 36317ft 403kts
18-Aug-18 08:39 42.370715 -114.314278 309 36318ft 403kts
18-Aug-18 08:40 42.442947 -114.430100 309 36319ft 403kts
18-Aug-18 08:41 42.516072 -114.545557 310 36317ft 403kts
18-Aug-18 08:42 42.589704 -114.659621 310 36298ft 401kts
18-Aug-18 08:43 42.663221 -114.774225 310 36281ft 401kts
18-Aug-18 08:44 42.736678 -114.888636 310 36272ft 401kts
18-Aug-18 08:45 42.810076 -115.003077 310 36269ft 401kts
18-Aug-18 08:46 42.883242 -115.117921 310 36272ft 401kts
18-Aug-18 08:47 42.956421 -115.233353 310 36271ft 401kts
18-Aug-18 08:48 43.029165 -115.348592 310 36267ft 401kts
18-Aug-18 08:49 43.101869 -115.464233 310 36263ft 401kts
18-Aug-18 08:50 43.174230 -115.579805 310 36261ft 399kts
18-Aug-18 08:51 43.246684 -115.695986 310 36261ft 401kts
18-Aug-18 08:52 43.318959 -115.812350 310 36264ft 399kts
18-Aug-18 08:53 43.390819 -115.928005 310 36271ft 400kts
18-Aug-18 08:54 43.462903 -116.045151 310 36272ft 398kts
18-Aug-18 08:55 43.534521 -116.162144 310 36270ft 399kts
18-Aug-18 08:56 43.614494 -116.267473 317 36270ft 399kts
18-Aug-18 08:57 43.697811 -116.369536 317 36270ft 399kts
18-Aug-18 08:58 43.780789 -116.471716 317 36270ft 400kts
18-Aug-18 08:59 43.864276 -116.574264 317 36272ft 400kts
18-Aug-18 09:00 43.947284 -116.676649 317 36274ft 400kts
18-Aug-18 09:01 44.030330 -116.779681 317 36273ft 401kts
18-Aug-18 09:02 44.113581 -116.883443 317 36272ft 401kts
18-Aug-18 09:03 44.196856 -116.987682 317 36274ft 403kts
18-Aug-18 09:04 44.280177 -117.092396 316 36282ft 402kts
18-Aug-18 09:05 44.363044 -117.196964 316 36293ft 403kts
18-Aug-18 09:06 44.446344 -117.302505 316 36307ft 403kts
18-Aug-18 09:07 44.529513 -117.408303 316 36319ft 403kts
18-Aug-18 09:08 44.612374 -117.513983 316 36329ft 403kts
18-Aug-18 09:09 44.695540 -117.620385 316 36335ft 403kts
18-Aug-18 09:10 44.778149 -117.727031 316 36338ft 403kts
18-Aug-18 09:11 44.860741 -117.833876 316 36340ft 403kts
18-Aug-18 09:12 44.943166 -117.940742 316 36338ft 403kts
18-Aug-18 09:13 45.025697 -118.048321 315 36335ft 403kts
18-Aug-18 09:14 45.108176 -118.156073 315 36329ft 403kts
18-Aug-18 09:15 45.190631 -118.263575 315 36323ft 403kts
18-Aug-18 09:16 45.273053 -118.371847 315 36325ft 403kts
18-Aug-18 09:17 45.355136 -118.480241 315 36321ft 403kts
18-Aug-18 09:18 45.437409 -118.589364 315 36318ft 404kts
18-Aug-18 09:19 45.519660 -118.698490 315 36303ft 404kts
18-Aug-18 09:20 45.601709 -118.808428 315 36271ft 405kts
18-Aug-18 09:21 45.683950 -118.919160 314 36251ft 405kts
18-Aug-18 09:22 45.758988 -119.039290 308 36240ft 405kts
18-Aug-18 09:23 45.831055 -119.162689 308 36224ft 405kts
18-Aug-18 09:24 45.903849 -119.287060 308 36220ft 406kts
18-Aug-18 09:25 45.976704 -119.410789 308 36220ft 406kts
18-Aug-18 09:26 46.049792 -119.535200 308 36220ft 407kts
18-Aug-18 09:27 46.122374 -119.660451 308 36220ft 407kts
18-Aug-18 09:28 46.194905 -119.786146 308 36221ft 407kts
18-Aug-18 09:29 46.267442 -119.912132 307 36219ft 407kts
18-Aug-18 09:30 46.339772 -120.038365 307 36221ft 407kts
18-Aug-18 09:31 46.412046 -120.164577 307 36225ft 407kts
18-Aug-18 09:32 46.484007 -120.291519 307 36228ft 407kts
18-Aug-18 09:33 46.555450 -120.418291 307 33841ft 406kts
18-Aug-18 09:34 46.621970 -120.551349 303 31193ft 402kts
18-Aug-18 09:35 46.684650 -120.683162 303 29051ft 391kts
18-Aug-18 09:36 46.745826 -120.812624 303 26986ft 383kts
18-Aug-18 09:37 46.805775 -120.939923 303 24949ft 378kts
18-Aug-18 09:38 46.864990 -121.066094 303 22924ft 375kts
18-Aug-18 09:39 46.923874 -121.191166 304 20911ft 372kts
18-Aug-18 09:40 46.982068 -121.315974 303 18912ft 369kts
18-Aug-18 09:41 47.038982 -121.439184 303 17288ft 357kts
18-Aug-18 09:42 47.085464 -121.539754 304 15837ft 347kts
18-Aug-18 09:43 47.145983 -121.671195 303 15022ft 329kts
18-Aug-18 09:44 47.197305 -121.783590 303 14304ft 330kts
18-Aug-18 09:45 47.239620 -121.876848 304 13704ft 328kts
18-Aug-18 09:46 47.298986 -122.006753 303 12872ft 326kts
18-Aug-18 09:47 47.340359 -122.098379 303 12289ft 318kts
18-Aug-18 09:48 47.403439 -122.177886 338 11176ft 285kts
18-Aug-18 09:49 47.492543 -122.182323 7 9034ft 276kts
18-Aug-18 09:50 47.555625 -122.171304 7 7375ft 272kts
18-Aug-18 09:51 47.628529 -122.158113 7 5799ft 252kts
18-Aug-18 09:52 47.696086 -122.152141 334 4094ft 244kts
18-Aug-18 09:53 47.702489 -122.237952 255 4026ft 225kts
18-Aug-18 09:54 47.671400 -122.314350 195 3933ft 228kts
18-Aug-18 09:55 47.609959 -122.304217 183 2986ft 203kts
18-Aug-18 09:56 47.559550 -122.306903 180 2296ft 170kts
18-Aug-18 09:57 47.513354 -122.307355 181 1417ft 165kts
18-Aug-18 09:58 47.468153 -122.307722 180 597ft 157kts
18-Aug-18 09:59 47.440419 -122.307884 179 441ft 26kts
18-Aug-18 10:00 47.439130 -122.307347 104 441ft 0kts
18-Aug-18 10:01 47.439123 -122.306623 74 441ft 0kts
18-Aug-18 10:02 47.440242 -122.302441 68 441ft 13kts
18-Aug-18 10:03 47.440446 -122.300232 48 441ft 3kts
18-Aug-18 10:04 47.440553 -122.300066 45 441ft 0kts
18-Aug-18 10:05 47.440553 -122.300066 45 441ft 0kts
18-Aug-18 10:06 47.440553 -122.300066 45 441ft 0kts
18-Aug-18 10:07 47.440553 -122.300066 45 441ft 0kts
18-Aug-18 10:08 47.440553 -122.300066 45 441ft 0kts
18-Aug-18 10:09 47.440553 -122.300066 45 441ft 0kts
18-Aug-18 10:10 47.440553 -122.300066 45 441ft 0kts
18-Aug-18 10:11 47.440553 -122.300066 45 441ft 0kts
18-Aug-18 10:12 47.440553 -122.300066 45 441ft 0kts
18-Aug-18 10:13 47.440553 -122.300066 45 441ft 0kts

Navigation Log

Ident Type
Flight plan parsing failed, navigation log unavailable